Welcome to Trans World Virtual Airlines!

Welcome TWVA's Newest Pilot:

TWA2313 Bryan Heald

Not a Trans World pilot yet?
Apply Now!




Sign-in with your pilot id or email, or register

Flight TWA3881-A

  • Submitted By: Austin Hill
  • Departure Airport: JFK Airport (KJFK)
  • Arrival Airport: Kansas City International Airport (KMCI)
  • Aircraft: E170 (N173TE)
  • Flight Time: 03.08
  • Date Submitted: 08/14/2018
  • Route: JULGO EBOXY BIGEO PSB AIR WINTS ZANDR APE26 BOWRR EMPTY CREEP FYLLS VHP GORDO CAP BAYLI TWAIN SAAGS DRIVL KMCI
  • Status: Accepted
Flight Details
Gross Revenue:
(67 load / $ 450.00 per unit
$ 30, 150.00
Fuel Cost:
(11264 fuel used @ 0.8 / unit)
$ 9, 011.20

Additional Log Information:

View Log

FS[15:07] Aircraft Title - Embraer 170 Delta
FS[15:07] Aircraft Model - E-170
FS[15:07] Flight Number TWA3881-A
FS[15:07] Departure KJFK
FS[15:07] Destination KMCI
FS[15:07] Boarding
FS[15:21] Pushing Back
FS[15:29] Taxiing to Runway
FS[15:38] Taking Off
FS[15:38] Taking Off
FS[15:38] 150kts
FS[15:38] pitch angle 5 degrees
FS[15:38] 15747 (lbs) of fuel onboard
FS[15:38] Climbing
FS[15:57] TOC Reached
FS[15:57] Cruise 30000
FS[17:41] TOD Reached
FS[17:41] Descending
FS[17:53] On Approach
FS[18:03] Landing Rate -115fpm
FS[18:03] 5694 (lbs) of fuel onboard
FS[18:03] pitch angle 6 degrees
FS[18:03] Taxiing to Gate
FS[18:08] Arrived
FS[18:14] Max Sim Rate: 1x
FS[18:14] kACARS_Free Version 1.0.1.1

Comments

Commenter Comment
Austin Hill KJFK 141508Z 20007KT 10SM SCT008 BKN150 23/22 A2989 // KMCI 141502Z 15010KT BKN008 BKN013 OVC050 23/22 A2991

Route Map